createdAt,value
2022-09-15T00:00:13.302Z,12.82
2022-09-15T00:01:13.339Z,12.82
2022-09-15T00:02:13.463Z,12.81
2022-09-15T00:03:13.477Z,12.81
2022-09-15T00:04:13.439Z,12.82
2022-09-15T00:05:13.476Z,12.76
2022-09-15T00:06:13.509Z,12.76
2022-09-15T00:07:13.547Z,12.77
2022-09-15T00:08:13.577Z,12.77
2022-09-15T00:09:13.616Z,12.78
2022-09-15T00:10:13.658Z,12.78
2022-09-15T00:11:13.687Z,12.71
2022-09-15T00:12:13.727Z,12.72
2022-09-15T00:13:13.768Z,12.72
2022-09-15T00:14:13.807Z,12.73
2022-09-15T00:15:13.840Z,12.73
2022-09-15T00:16:15.153Z,12.73
2022-09-15T00:17:13.992Z,12.66
2022-09-15T00:18:13.941Z,12.73
2022-09-15T00:19:13.981Z,12.67
2022-09-15T00:20:14.014Z,12.66
2022-09-15T00:21:14.051Z,12.66
2022-09-15T00:22:14.084Z,12.67
2022-09-15T00:23:14.125Z,12.66
2022-09-15T00:24:14.156Z,12.66
2022-09-15T00:25:14.191Z,12.66
2022-09-15T00:26:14.231Z,12.65
2022-09-15T00:27:14.254Z,12.57
2022-09-15T00:28:14.283Z,12.58
2022-09-15T00:29:14.318Z,12.56
2022-09-15T00:30:14.357Z,12.56
2022-09-15T00:31:14.476Z,12.55
2022-09-15T00:32:14.437Z,12.48
2022-09-15T00:33:14.467Z,12.47
2022-09-15T00:34:14.495Z,12.47
2022-09-15T00:35:14.528Z,12.4
2022-09-15T00:36:14.581Z,12.4
2022-09-15T00:37:14.611Z,12.39
2022-09-15T00:38:14.649Z,12.39
2022-09-15T00:39:14.678Z,12.4
2022-09-15T00:40:14.781Z,12.41
2022-09-15T00:41:14.754Z,12.37
2022-09-15T00:42:14.794Z,12.39
2022-09-15T00:43:14.830Z,12.42
2022-09-15T00:44:14.879Z,12.43
2022-09-15T00:45:14.911Z,12.45
2022-09-15T00:46:14.964Z,12.45
2022-09-15T00:47:19.570Z,12.4
2022-09-15T00:48:15.004Z,12.4
2022-09-15T00:49:15.042Z,12.4
2022-09-15T00:50:15.075Z,12.42
2022-09-15T00:51:15.112Z,12.42
2022-09-15T00:52:15.155Z,12.42
2022-09-15T00:53:15.188Z,12.43
2022-09-15T00:54:15.222Z,12.43
2022-09-15T00:55:15.264Z,12.43
2022-09-15T00:56:15.299Z,12.43
2022-09-15T00:57:15.360Z,12.43
2022-09-15T00:58:15.371Z,12.42
2022-09-15T00:59:15.411Z,12.42
2022-09-15T01:00:15.449Z,12.37
2022-09-15T01:01:15.504Z,12.36
2022-09-15T01:02:15.719Z,12.37
2022-09-15T01:03:15.537Z,12.38
2022-09-15T01:04:15.584Z,12.38
2022-09-15T01:05:15.615Z,12.38
2022-09-15T01:06:15.663Z,12.38
2022-09-15T01:07:15.700Z,12.39
2022-09-15T01:08:15.731Z,12.38
2022-09-15T01:09:15.775Z,12.32
2022-09-15T01:10:15.811Z,12.32
2022-09-15T01:11:15.836Z,12.33
2022-09-15T01:12:15.881Z,12.33
2022-09-15T01:13:15.907Z,12.34
2022-09-15T01:14:15.950Z,12.34
2022-09-15T01:15:15.985Z,12.35
2022-09-15T01:16:31.509Z,12.34
2022-09-15T01:17:16.044Z,12.35
2022-09-15T01:18:16.083Z,12.28
2022-09-15T01:19:16.115Z,12.28
2022-09-15T01:20:16.156Z,12.27
2022-09-15T01:21:16.192Z,12.27
2022-09-15T01:22:16.234Z,12.28
2022-09-15T01:23:16.286Z,12.28
2022-09-15T01:24:16.319Z,12.29
2022-09-15T01:25:16.358Z,12.29
2022-09-15T01:26:16.410Z,12.29
2022-09-15T01:27:40.566Z,12.23
2022-09-15T01:28:16.473Z,12.24
2022-09-15T01:29:16.509Z,12.24
2022-09-15T01:30:16.545Z,12.25
2022-09-15T01:31:16.686Z,12.25
2022-09-15T01:32:16.620Z,12.25
2022-09-15T01:33:16.651Z,12.25
2022-09-15T01:34:16.692Z,12.25
2022-09-15T01:35:16.722Z,12.32
2022-09-15T01:36:16.761Z,12.32
2022-09-15T01:37:16.785Z,12.32
2022-09-15T01:38:16.822Z,12.31
2022-09-15T01:39:16.861Z,12.31
2022-09-15T01:40:16.949Z,12.38
2022-09-15T01:41:16.907Z,12.37
2022-09-15T01:42:16.948Z,12.37
2022-09-15T01:43:17.017Z,12.43
2022-09-15T01:44:17.020Z,12.43
2022-09-15T01:45:17.052Z,12.43
2022-09-15T01:46:17.148Z,12.42
2022-09-15T01:47:17.131Z,12.42
2022-09-15T01:48:17.164Z,12.41
2022-09-15T01:49:17.201Z,12.48
2022-09-15T01:50:17.234Z,12.46
2022-09-15T01:51:17.269Z,12.46
2022-09-15T01:52:17.310Z,12.46
2022-09-15T01:53:17.337Z,12.45
2022-09-15T01:54:17.375Z,12.46
2022-09-15T01:55:17.404Z,12.51
2022-09-15T01:56:17.439Z,12.52
2022-09-15T01:57:17.471Z,12.51
2022-09-15T01:58:17.505Z,12.51
2022-09-15T01:59:17.539Z,12.57
2022-09-15T02:00:17.577Z,12.57
2022-09-15T02:01:17.647Z,12.57
2022-09-15T02:02:17.686Z,12.62
2022-09-15T02:03:17.674Z,12.62
2022-09-15T02:04:17.705Z,12.61
2022-09-15T02:05:17.732Z,12.6
2022-09-15T02:06:17.766Z,12.59
2022-09-15T02:07:17.799Z,12.65
2022-09-15T02:08:17.846Z,12.65
2022-09-15T02:09:17.876Z,12.65
2022-09-15T02:10:17.916Z,12.64
2022-09-15T02:11:17.949Z,12.64
2022-09-15T02:12:17.988Z,12.63
2022-09-15T02:13:18.024Z,12.63
2022-09-15T02:14:18.070Z,12.63
2022-09-15T02:15:18.108Z,12.63
2022-09-15T02:16:18.178Z,12.63
2022-09-15T02:17:18.173Z,12.63
2022-09-15T02:18:18.209Z,12.57
2022-09-15T02:19:18.249Z,12.56
2022-09-15T02:20:18.286Z,12.56
2022-09-15T02:21:18.309Z,12.56
2022-09-15T02:22:18.353Z,12.56
2022-09-15T02:23:18.392Z,12.49
2022-09-15T02:24:18.413Z,12.5
2022-09-15T02:25:18.450Z,12.5
2022-09-15T02:26:18.485Z,12.5
2022-09-15T02:27:18.529Z,12.43
2022-09-15T02:28:18.565Z,12.43
2022-09-15T02:29:18.598Z,12.44
2022-09-15T02:30:18.631Z,12.37
2022-09-15T02:31:18.724Z,12.38
2022-09-15T02:32:18.710Z,12.38
2022-09-15T02:33:18.742Z,12.38
2022-09-15T02:34:18.782Z,12.32
2022-09-15T02:35:18.809Z,12.32
2022-09-15T02:36:18.839Z,12.33
2022-09-15T02:37:18.875Z,12.34
2022-09-15T02:38:18.914Z,12.27
2022-09-15T02:39:18.939Z,12.27
2022-09-15T02:40:19.022Z,12.27
2022-09-15T02:41:19.003Z,12.29
2022-09-15T02:42:19.030Z,12.28
2022-09-15T02:43:19.067Z,12.22
2022-09-15T02:44:19.112Z,12.22
2022-09-15T02:45:19.195Z,12.23
2022-09-15T02:46:19.179Z,12.16
2022-09-15T02:47:19.211Z,12.16
2022-09-15T02:48:19.240Z,12.17
2022-09-15T02:49:19.285Z,12.18
2022-09-15T02:50:19.319Z,12.18
2022-09-15T02:51:19.365Z,12.12
2022-09-15T02:52:19.393Z,12.12
2022-09-15T02:53:19.424Z,12.12
2022-09-15T02:54:19.452Z,12.13
2022-09-15T02:55:19.484Z,12.06
2022-09-15T02:56:19.518Z,12.06
2022-09-15T02:57:19.557Z,12.06
2022-09-15T02:58:19.591Z,12.07
2022-09-15T02:59:19.624Z,12
2022-09-15T03:00:19.661Z,12.01
2022-09-15T03:01:19.723Z,12.01
2022-09-15T03:02:19.804Z,12.02
2022-09-15T03:03:19.767Z,12.02
2022-09-15T03:04:19.807Z,12.02
2022-09-15T03:05:19.840Z,12.02
2022-09-15T03:06:19.879Z,11.96
2022-09-15T03:07:19.913Z,11.96
2022-09-15T03:08:19.944Z,11.96
2022-09-15T03:09:19.991Z,11.96
2022-09-15T03:10:20.030Z,11.97
2022-09-15T03:11:20.074Z,11.9
2022-09-15T03:12:20.102Z,11.9
2022-09-15T03:13:20.143Z,11.9
2022-09-15T03:14:20.183Z,11.89
2022-09-15T03:15:20.227Z,11.89
2022-09-15T03:16:20.325Z,11.88
2022-09-15T03:17:20.303Z,11.82
2022-09-15T03:18:20.339Z,11.82
2022-09-15T03:19:20.376Z,11.82
2022-09-15T03:20:20.419Z,11.82
2022-09-15T03:21:20.456Z,11.82
2022-09-15T03:22:20.486Z,11.76
2022-09-15T03:23:20.520Z,11.76
2022-09-15T03:24:20.557Z,11.77
2022-09-15T03:25:20.590Z,11.77
2022-09-15T03:26:20.626Z,11.78
2022-09-15T03:27:20.654Z,11.77
2022-09-15T03:28:20.692Z,11.77
2022-09-15T03:29:20.723Z,11.7
2022-09-15T03:30:20.755Z,11.7
2022-09-15T03:31:20.889Z,11.7
2022-09-15T03:32:20.833Z,11.7
2022-09-15T03:33:20.864Z,11.7
2022-09-15T03:34:20.894Z,11.7
2022-09-15T03:35:20.949Z,11.7
2022-09-15T03:36:20.974Z,11.63
2022-09-15T03:37:21.013Z,11.64
2022-09-15T03:38:21.054Z,11.65
2022-09-15T03:39:21.087Z,11.65
2022-09-15T03:40:21.196Z,11.64
2022-09-15T03:41:21.163Z,11.65
2022-09-15T03:42:21.213Z,11.66
2022-09-15T03:43:21.228Z,11.66
2022-09-15T03:44:21.266Z,11.66
2022-09-15T03:45:21.303Z,11.59
2022-09-15T03:46:21.348Z,11.59
2022-09-15T03:47:21.378Z,11.59
2022-09-15T03:48:21.413Z,11.6
2022-09-15T03:49:21.440Z,11.61
2022-09-15T03:50:21.480Z,11.61
2022-09-15T03:51:21.515Z,11.62
2022-09-15T03:52:21.543Z,11.62
2022-09-15T03:53:21.576Z,11.62
2022-09-15T03:54:21.604Z,11.62
2022-09-15T03:55:21.633Z,11.62
2022-09-15T03:56:21.672Z,11.63
2022-09-15T03:57:21.708Z,11.63
2022-09-15T03:58:21.743Z,11.56
2022-09-15T03:59:21.777Z,11.62
2022-09-15T04:00:21.816Z,11.56
2022-09-15T04:01:21.964Z,11.56
2022-09-15T04:02:21.919Z,11.56
2022-09-15T04:03:21.929Z,11.56
2022-09-15T04:04:21.961Z,11.56
2022-09-15T04:05:21.997Z,11.56
2022-09-15T04:06:22.022Z,11.56
2022-09-15T04:07:22.060Z,11.56
2022-09-15T04:08:22.092Z,11.57
2022-09-15T04:09:22.125Z,11.57
2022-09-15T04:10:22.162Z,11.57
2022-09-15T04:11:22.189Z,11.57
2022-09-15T04:12:22.224Z,11.56
2022-09-15T04:13:26.665Z,11.5
2022-09-15T04:14:22.295Z,11.49
2022-09-15T04:15:22.324Z,11.48
2022-09-15T04:16:22.419Z,11.48
2022-09-15T04:17:22.395Z,11.47
2022-09-15T04:18:22.430Z,11.48
2022-09-15T04:19:22.460Z,11.47
2022-09-15T04:20:22.507Z,11.41
2022-09-15T04:21:22.533Z,11.41
2022-09-15T04:22:22.569Z,11.42
2022-09-15T04:23:22.611Z,11.42
2022-09-15T04:24:22.644Z,11.42
2022-09-15T04:25:22.677Z,11.42
2022-09-15T04:26:22.713Z,11.42
2022-09-15T04:27:22.758Z,11.37
2022-09-15T04:28:22.809Z,11.37
2022-09-15T04:29:22.821Z,11.38
2022-09-15T04:30:22.852Z,11.38
2022-09-15T04:31:22.954Z,11.39
2022-09-15T04:32:22.916Z,11.38
2022-09-15T04:33:22.955Z,11.38
2022-09-15T04:34:22.999Z,11.39
2022-09-15T04:35:23.049Z,11.4
2022-09-15T04:36:23.076Z,11.4
2022-09-15T04:37:23.115Z,11.4
2022-09-15T04:38:23.155Z,11.41
2022-09-15T04:39:23.188Z,11.41
2022-09-15T04:40:23.293Z,11.41
2022-09-15T04:41:23.245Z,11.41
2022-09-15T04:42:23.283Z,11.41
2022-09-15T04:43:23.322Z,11.41
2022-09-15T04:44:23.351Z,11.41
2022-09-15T04:45:23.393Z,11.41
2022-09-15T04:46:23.516Z,11.41
2022-09-15T04:47:23.463Z,11.41
2022-09-15T04:48:23.498Z,11.41
2022-09-15T04:49:23.537Z,11.41
2022-09-15T04:50:23.575Z,11.41
2022-09-15T04:51:23.603Z,11.41
2022-09-15T04:52:23.641Z,11.41
2022-09-15T04:53:23.671Z,11.41
2022-09-15T04:54:23.714Z,11.41
2022-09-15T04:55:23.748Z,11.41
2022-09-15T04:56:23.785Z,11.42
2022-09-15T04:57:23.822Z,11.41
2022-09-15T04:58:23.863Z,11.41
2022-09-15T04:59:23.892Z,11.47
2022-09-15T05:00:23.932Z,11.41
2022-09-15T05:01:24.035Z,11.41
2022-09-15T05:02:24.094Z,11.41
2022-09-15T05:03:24.035Z,11.42
2022-09-15T05:04:24.065Z,11.41
2022-09-15T05:05:24.094Z,11.49
2022-09-15T05:06:24.141Z,11.48
2022-09-15T05:07:24.171Z,11.48
2022-09-15T05:08:24.204Z,11.48
2022-09-15T05:09:24.237Z,11.48
2022-09-15T05:10:24.273Z,11.47
2022-09-15T05:11:24.304Z,11.47
2022-09-15T05:12:24.340Z,11.47
2022-09-15T05:13:24.374Z,11.47
2022-09-15T05:14:24.404Z,11.47
2022-09-15T05:15:24.442Z,11.54
2022-09-15T05:16:24.622Z,11.54
2022-09-15T05:17:26.759Z,11.6
2022-09-15T05:18:24.566Z,11.58
2022-09-15T05:19:24.578Z,11.64
2022-09-15T05:20:24.606Z,11.64
2022-09-15T05:21:24.639Z,11.63
2022-09-15T05:22:24.681Z,11.63
2022-09-15T05:23:24.714Z,11.68
2022-09-15T05:24:24.750Z,11.68
2022-09-15T05:25:24.789Z,11.66
2022-09-15T05:26:24.829Z,11.66
2022-09-15T05:27:24.864Z,11.72
2022-09-15T05:28:24.898Z,11.72
2022-09-15T05:29:24.936Z,11.72
2022-09-15T05:30:37.629Z,11.8
2022-09-15T05:31:25.049Z,11.8
2022-09-15T05:32:25.032Z,11.79
2022-09-15T05:33:25.066Z,11.86
2022-09-15T05:34:25.104Z,11.85
2022-09-15T05:35:25.138Z,11.84
2022-09-15T05:36:25.344Z,11.85
2022-09-15T05:37:25.212Z,11.92
2022-09-15T05:38:25.246Z,11.92
2022-09-15T05:39:25.272Z,11.98
2022-09-15T05:40:25.376Z,11.98
2022-09-15T05:41:25.345Z,12.04
2022-09-15T05:42:25.376Z,12.02
2022-09-15T05:43:25.418Z,12.02
2022-09-15T05:44:25.447Z,12.07
2022-09-15T05:45:25.484Z,12.05
2022-09-15T05:46:25.564Z,12.04
2022-09-15T05:47:25.556Z,12.04
2022-09-15T05:48:25.597Z,12.03
2022-09-15T05:49:25.622Z,12.1
2022-09-15T05:50:25.652Z,12.09
2022-09-15T05:51:25.680Z,12.09
2022-09-15T05:52:25.716Z,12.09
2022-09-15T05:53:25.756Z,12.15
2022-09-15T05:54:25.791Z,12.15
2022-09-15T05:55:25.813Z,12.2
2022-09-15T05:56:25.843Z,12.19
2022-09-15T05:57:25.877Z,12.26
2022-09-15T05:58:25.903Z,12.25
2022-09-15T05:59:25.942Z,12.31
2022-09-15T06:00:25.984Z,12.37
2022-09-15T06:01:26.085Z,12.36
2022-09-15T06:02:26.082Z,12.4
2022-09-15T06:03:30.602Z,12.44
2022-09-15T06:04:26.103Z,12.42
2022-09-15T06:05:26.144Z,12.41
2022-09-15T06:06:26.186Z,12.46
2022-09-15T06:07:26.209Z,12.45
2022-09-15T06:08:26.244Z,12.44
2022-09-15T06:09:26.280Z,12.44
2022-09-15T06:10:26.313Z,12.5
2022-09-15T06:11:26.352Z,12.49
2022-09-15T06:12:26.400Z,12.55
2022-09-15T06:13:26.420Z,12.61
2022-09-15T06:14:26.450Z,12.65
2022-09-15T06:15:26.486Z,12.7
2022-09-15T06:16:26.665Z,12.75
2022-09-15T06:17:26.559Z,12.8
2022-09-15T06:18:26.589Z,12.84
2022-09-15T06:19:26.621Z,12.89
2022-09-15T06:20:26.705Z,12.86
2022-09-15T06:21:26.688Z,12.91
2022-09-15T06:22:26.725Z,12.97
2022-09-15T06:23:26.750Z,12.95
2022-09-15T06:24:26.774Z,12.93
2022-09-15T06:25:26.811Z,12.98
2022-09-15T06:26:26.848Z,12.95
2022-09-15T06:27:26.883Z,12.94
2022-09-15T06:28:26.922Z,12.93
2022-09-15T06:29:26.959Z,12.99
2022-09-15T06:30:26.995Z,12.99
2022-09-15T06:31:27.096Z,12.98
2022-09-15T06:32:27.058Z,13.04
2022-09-15T06:33:27.094Z,13.03
2022-09-15T06:34:27.121Z,13.03
2022-09-15T06:35:27.169Z,13.09
2022-09-15T06:36:27.214Z,13.09
2022-09-15T06:37:27.225Z,13.14
2022-09-15T06:38:27.256Z,13.14
2022-09-15T06:39:27.293Z,13.12
2022-09-15T06:40:27.454Z,13.16
2022-09-15T06:41:27.355Z,13.15
2022-09-15T06:42:27.388Z,13.15
2022-09-15T06:43:27.413Z,13.18
2022-09-15T06:44:27.442Z,13.17
2022-09-15T06:45:27.477Z,13.15
2022-09-15T06:46:27.551Z,13.16
2022-09-15T06:47:27.541Z,13.14
2022-09-15T06:48:27.576Z,13.15
2022-09-15T06:49:27.606Z,13.17
2022-09-15T06:50:27.633Z,13.17
2022-09-15T06:51:27.670Z,13.15
2022-09-15T06:52:27.716Z,13.16
2022-09-15T06:53:27.741Z,13.16
2022-09-15T06:54:27.772Z,13.15
2022-09-15T06:55:27.799Z,13.21
2022-09-15T06:56:27.835Z,13.2
2022-09-15T06:57:27.866Z,13.19
2022-09-15T06:58:27.905Z,13.23
2022-09-15T06:59:27.937Z,13.23
2022-09-15T07:00:27.978Z,13.21
2022-09-15T07:01:28.006Z,13.21
2022-09-15T07:02:28.164Z,13.2
2022-09-15T07:03:28.201Z,13.21
2022-09-15T07:04:28.115Z,13.22
2022-09-15T07:05:28.143Z,13.21
2022-09-15T07:06:28.178Z,13.28
2022-09-15T07:07:28.214Z,13.27
2022-09-15T07:08:28.246Z,13.33
2022-09-15T07:09:28.282Z,13.32
2022-09-15T07:10:28.317Z,13.36
2022-09-15T07:11:28.353Z,13.36
2022-09-15T07:12:28.387Z,13.41
2022-09-15T07:13:28.414Z,13.48
2022-09-15T07:14:28.452Z,13.5
2022-09-15T07:15:28.478Z,13.48
2022-09-15T07:16:28.555Z,13.52
2022-09-15T07:17:28.557Z,13.48
2022-09-15T07:18:28.595Z,13.46
2022-09-15T07:19:28.630Z,13.52
2022-09-15T07:20:28.663Z,13.53
2022-09-15T07:21:28.690Z,13.51
2022-09-15T07:22:28.720Z,13.49
2022-09-15T07:23:28.757Z,13.48
2022-09-15T07:24:28.784Z,13.48
2022-09-15T07:25:28.818Z,13.46
2022-09-15T07:26:28.856Z,13.46
2022-09-15T07:27:28.881Z,13.53
2022-09-15T07:28:28.918Z,13.54
2022-09-15T07:29:28.941Z,13.52
2022-09-15T07:30:28.978Z,13.58
2022-09-15T07:31:29.058Z,13.56
2022-09-15T07:32:29.049Z,13.53
2022-09-15T07:33:29.079Z,13.52
2022-09-15T07:34:29.100Z,13.51
2022-09-15T07:35:29.136Z,13.51
2022-09-15T07:36:29.175Z,13.54
2022-09-15T07:37:29.206Z,13.55
2022-09-15T07:38:29.242Z,13.55
2022-09-15T07:39:29.279Z,13.53
2022-09-15T07:40:29.364Z,13.49
2022-09-15T07:41:29.353Z,13.55
2022-09-15T07:42:32.159Z,13.55
2022-09-15T07:43:29.412Z,13.55
2022-09-15T07:44:29.438Z,13.63
2022-09-15T07:45:29.536Z,13.63
2022-09-15T07:46:29.501Z,13.63
2022-09-15T07:47:29.531Z,13.67
2022-09-15T07:48:29.567Z,13.73
2022-09-15T07:49:29.601Z,13.71
2022-09-15T07:50:29.638Z,13.8
2022-09-15T07:51:29.661Z,13.79
2022-09-15T07:52:29.739Z,13.84
2022-09-15T07:53:29.737Z,13.9
2022-09-15T07:54:29.767Z,13.86
2022-09-15T07:55:29.806Z,13.86
2022-09-15T07:56:29.844Z,13.82
2022-09-15T07:57:29.876Z,13.81
2022-09-15T07:58:29.907Z,13.83
2022-09-15T07:59:29.942Z,13.84
2022-09-15T08:00:30.020Z,13.92
2022-09-15T08:01:30.115Z,13.99
2022-09-15T08:02:30.176Z,13.98
2022-09-15T08:03:30.073Z,14.04
2022-09-15T08:04:30.116Z,14.02
2022-09-15T08:05:30.153Z,14.07
2022-09-15T08:06:30.186Z,14.1
2022-09-15T08:07:30.216Z,14.08
2022-09-15T08:08:30.247Z,14.05
2022-09-15T08:09:30.284Z,14.09
2022-09-15T08:10:30.323Z,14.08
2022-09-15T08:11:30.366Z,14.09
2022-09-15T08:12:30.398Z,14.17
2022-09-15T08:13:30.433Z,14.16
2022-09-15T08:14:30.470Z,14.18
2022-09-15T08:15:30.503Z,14.25
2022-09-15T08:16:30.619Z,14.23
2022-09-15T08:17:30.575Z,14.26
2022-09-15T08:18:30.615Z,14.31
2022-09-15T08:19:30.647Z,14.28
2022-09-15T08:20:30.679Z,14.28
2022-09-15T08:21:30.709Z,14.24
2022-09-15T08:22:30.740Z,14.2
2022-09-15T08:23:30.773Z,14.23
2022-09-15T08:24:30.816Z,14.2
2022-09-15T08:25:30.850Z,14.2
2022-09-15T08:26:30.884Z,14.18
2022-09-15T08:27:30.919Z,14.17
2022-09-15T08:28:30.955Z,14.19
2022-09-15T08:29:30.986Z,14.23
2022-09-15T08:30:31.023Z,14.25
2022-09-15T08:31:31.158Z,14.24
2022-09-15T08:32:31.100Z,14.2
2022-09-15T08:33:31.135Z,14.26
2022-09-15T08:34:31.166Z,14.26
2022-09-15T08:35:31.204Z,14.23
2022-09-15T08:36:31.235Z,14.23
2022-09-15T08:37:31.270Z,14.23
2022-09-15T08:38:31.308Z,14.26
2022-09-15T08:39:31.348Z,14.26
2022-09-15T08:40:31.474Z,14.28
2022-09-15T08:41:31.420Z,14.31
2022-09-15T08:42:31.439Z,14.32
2022-09-15T08:43:31.469Z,14.29
2022-09-15T08:44:31.505Z,14.3
2022-09-15T08:45:31.538Z,14.3
2022-09-15T08:46:31.650Z,14.32
2022-09-15T08:47:31.600Z,14.29
2022-09-15T08:48:31.636Z,14.23
2022-09-15T08:49:50.519Z,14.21
2022-09-15T08:50:31.697Z,14.15
2022-09-15T08:51:31.728Z,14.16
2022-09-15T08:52:31.764Z,14.17
2022-09-15T08:53:31.806Z,14.07
2022-09-15T08:54:31.841Z,14.08
2022-09-15T08:55:31.872Z,14.03
2022-09-15T08:56:31.906Z,14.05
2022-09-15T08:57:31.939Z,14.07
2022-09-15T08:58:31.988Z,14.04
2022-09-15T08:59:32.008Z,14.07
2022-09-15T09:00:32.049Z,14.06
2022-09-15T09:01:32.145Z,14.03
2022-09-15T09:02:32.298Z,14.03
2022-09-15T09:03:32.145Z,14.06
2022-09-15T09:04:32.184Z,14.13
2022-09-15T09:05:32.223Z,14.12
2022-09-15T09:06:32.255Z,14.15
2022-09-15T09:07:32.291Z,14.14
2022-09-15T09:08:32.331Z,14.16
2022-09-15T09:09:32.365Z,14.24
2022-09-15T09:10:32.399Z,14.25
2022-09-15T09:11:32.434Z,14.22
2022-09-15T09:12:32.470Z,14.2
2022-09-15T09:13:35.609Z,14.25
2022-09-15T09:14:32.537Z,14.19
2022-09-15T09:15:32.637Z,14.23
2022-09-15T09:16:32.596Z,14.26
2022-09-15T09:17:32.631Z,14.29
2022-09-15T09:18:32.666Z,14.31
2022-09-15T09:19:32.700Z,14.4
2022-09-15T09:20:32.734Z,14.33
2022-09-15T09:21:32.766Z,14.37
2022-09-15T09:22:32.803Z,14.29
2022-09-15T09:23:32.837Z,14.28
2022-09-15T09:24:32.874Z,14.31
2022-09-15T09:25:32.910Z,14.24
2022-09-15T09:26:32.947Z,14.29
2022-09-15T09:27:32.981Z,14.32
2022-09-15T09:28:33.015Z,14.38
2022-09-15T09:29:33.052Z,14.45
2022-09-15T09:30:33.088Z,14.37
2022-09-15T09:31:33.123Z,14.36
2022-09-15T09:32:33.151Z,14.35
2022-09-15T09:33:33.188Z,14.37
2022-09-15T09:34:33.219Z,14.43
2022-09-15T09:35:33.251Z,14.33
2022-09-15T09:36:33.290Z,14.35
2022-09-15T09:37:33.314Z,14.26
2022-09-15T09:38:33.351Z,14.29
2022-09-15T09:39:33.386Z,14.36
2022-09-15T09:40:33.476Z,14.35
2022-09-15T09:41:33.455Z,14.38
2022-09-15T09:42:33.491Z,14.39
2022-09-15T09:43:33.524Z,14.4
2022-09-15T09:44:33.558Z,14.48
2022-09-15T09:45:33.588Z,14.56
2022-09-15T09:46:33.664Z,14.55
2022-09-15T09:47:33.665Z,14.53
2022-09-15T09:48:33.695Z,14.53
2022-09-15T09:49:33.727Z,14.52
2022-09-15T09:50:33.764Z,14.54
2022-09-15T09:51:33.789Z,14.63
2022-09-15T09:52:33.828Z,14.63
2022-09-15T09:53:33.875Z,14.66
2022-09-15T09:54:33.896Z,14.63
2022-09-15T09:55:33.929Z,14.63
2022-09-15T09:56:33.967Z,14.53
2022-09-15T09:57:36.617Z,14.45
2022-09-15T09:58:34.030Z,14.49
2022-09-15T09:59:34.058Z,14.5
2022-09-15T10:00:34.094Z,14.54
2022-09-15T10:01:34.177Z,14.49
2022-09-15T10:02:34.164Z,14.5
2022-09-15T10:03:34.192Z,14.56
2022-09-15T10:04:34.255Z,14.6
2022-09-15T10:05:34.265Z,14.51
2022-09-15T10:06:34.292Z,14.54
2022-09-15T10:07:34.322Z,14.6
2022-09-15T10:08:34.350Z,14.61
2022-09-15T10:09:34.389Z,14.59
2022-09-15T10:10:34.423Z,14.6
2022-09-15T10:11:34.457Z,14.59
2022-09-15T10:12:34.497Z,14.65
2022-09-15T10:13:34.521Z,14.69
2022-09-15T10:14:34.546Z,14.69
2022-09-15T10:15:34.585Z,14.74
2022-09-15T10:16:34.632Z,14.73
2022-09-15T10:17:34.650Z,14.71
2022-09-15T10:18:34.685Z,14.65
2022-09-15T10:19:34.720Z,14.6
2022-09-15T10:20:34.757Z,14.75
2022-09-15T10:21:34.799Z,14.58
2022-09-15T10:22:34.843Z,14.55
2022-09-15T10:23:34.877Z,14.58
2022-09-15T10:24:34.918Z,14.57
2022-09-15T10:25:55.116Z,14.57
2022-09-15T10:26:34.976Z,14.49
2022-09-15T10:27:35.013Z,14.64
2022-09-15T10:28:35.048Z,14.55
2022-09-15T10:29:35.087Z,14.5
2022-09-15T10:30:35.114Z,14.54
2022-09-15T10:31:35.208Z,14.7
2022-09-15T10:32:35.176Z,14.73
2022-09-15T10:33:35.281Z,14.66
2022-09-15T10:34:35.229Z,14.63
2022-09-15T10:35:35.265Z,14.66
2022-09-15T10:36:35.295Z,14.78
2022-09-15T10:37:35.332Z,14.78
2022-09-15T10:38:35.362Z,14.59
2022-09-15T10:39:35.403Z,14.58
2022-09-15T10:40:35.527Z,14.33
2022-09-15T10:41:35.461Z,14.2
2022-09-15T10:42:35.501Z,14.16
2022-09-15T10:43:35.531Z,14.16
2022-09-15T10:44:35.568Z,14.24
2022-09-15T10:45:35.711Z,14.12
2022-09-15T10:46:38.805Z,14.23
2022-09-15T10:47:35.659Z,14.27
2022-09-15T10:48:35.691Z,14.23
2022-09-15T10:49:35.756Z,14.2
2022-09-15T10:50:35.757Z,14.25
2022-09-15T10:51:35.788Z,14.31
2022-09-15T10:52:35.823Z,14.33
2022-09-15T10:53:35.843Z,14.22
2022-09-15T10:54:35.964Z,14.24
2022-09-15T10:55:52.311Z,14.28
2022-09-15T10:56:35.939Z,14.38
2022-09-15T10:57:35.980Z,14.31
2022-09-15T10:58:36.019Z,14.23
2022-09-15T10:59:36.052Z,14.19
2022-09-15T11:00:36.153Z,14.18
2022-09-15T11:01:36.125Z,14.14
2022-09-15T11:02:36.221Z,14.17
2022-09-15T11:03:36.181Z,14.18
2022-09-15T11:04:36.219Z,14.18
2022-09-15T11:05:36.254Z,14.16
2022-09-15T11:06:36.293Z,14.25
2022-09-15T11:07:36.323Z,14.04
2022-09-15T11:08:36.356Z,14.09
2022-09-15T11:09:36.392Z,14.07
2022-09-15T11:10:36.433Z,14.13
2022-09-15T11:11:36.473Z,14.16
2022-09-15T11:12:36.500Z,14.08
2022-09-15T11:13:36.545Z,14.2
2022-09-15T11:14:36.578Z,14.26
2022-09-15T11:15:36.607Z,14.18
2022-09-15T11:16:36.706Z,14.09
2022-09-15T11:17:36.675Z,14.05
2022-09-15T11:18:36.704Z,14.08
2022-09-15T11:19:36.735Z,14.02
2022-09-15T11:20:36.771Z,14.02
2022-09-15T11:21:36.810Z,14.11
2022-09-15T11:22:36.839Z,14.11
2022-09-15T11:23:36.876Z,13.93
2022-09-15T11:24:36.912Z,13.85
2022-09-15T11:25:36.947Z,13.82
2022-09-15T11:26:36.975Z,13.75
2022-09-15T11:27:37.013Z,13.81
2022-09-15T11:28:37.040Z,13.74
2022-09-15T11:29:37.076Z,13.74
2022-09-15T11:30:37.113Z,13.76
2022-09-15T11:31:37.267Z,13.69
2022-09-15T11:32:37.172Z,13.77
2022-09-15T11:33:37.206Z,13.85
2022-09-15T11:34:37.241Z,13.85
2022-09-15T11:35:37.267Z,13.74
2022-09-15T11:36:37.302Z,13.76
2022-09-15T11:37:37.339Z,13.78
2022-09-15T11:38:37.371Z,13.81
2022-09-15T11:39:37.410Z,13.86
2022-09-15T11:40:37.439Z,13.81
2022-09-15T11:41:37.476Z,13.81
2022-09-15T11:42:37.513Z,13.81
2022-09-15T11:43:37.540Z,13.84
2022-09-15T11:44:37.575Z,13.95
2022-09-15T11:45:37.616Z,13.86
2022-09-15T11:46:37.679Z,13.79
2022-09-15T11:47:37.675Z,13.93
2022-09-15T11:48:37.716Z,13.83
2022-09-15T11:49:37.749Z,13.84
2022-09-15T11:50:37.780Z,13.8
2022-09-15T11:51:37.803Z,13.79
2022-09-15T11:52:37.831Z,13.83
2022-09-15T11:53:37.864Z,13.67
2022-09-15T11:54:37.905Z,13.76
2022-09-15T11:55:37.933Z,13.8
2022-09-15T11:56:37.973Z,13.75
2022-09-15T11:57:38.012Z,13.7
2022-09-15T11:58:38.052Z,13.7
2022-09-15T11:59:38.084Z,13.67
2022-09-15T12:00:38.121Z,13.52
2022-09-15T12:01:38.266Z,13.55
2022-09-15T12:02:38.245Z,13.47
2022-09-15T12:03:38.224Z,13.46
2022-09-15T12:04:38.259Z,13.44
2022-09-15T12:05:38.294Z,13.4
2022-09-15T12:06:42.012Z,13.46
2022-09-15T12:07:38.360Z,13.35
2022-09-15T12:08:38.391Z,13.4
2022-09-15T12:09:38.427Z,13.44
2022-09-15T12:10:38.462Z,13.44
2022-09-15T12:11:38.492Z,13.44
2022-09-15T12:12:38.530Z,13.46
2022-09-15T12:13:38.564Z,13.56
2022-09-15T12:14:38.594Z,13.6
2022-09-15T12:15:38.660Z,13.69
2022-09-15T12:16:38.657Z,13.67
2022-09-15T12:17:38.684Z,13.7
2022-09-15T12:18:41.748Z,13.58
2022-09-15T12:19:38.743Z,13.5
2022-09-15T12:20:38.778Z,13.57
2022-09-15T12:21:38.812Z,13.6
2022-09-15T12:22:38.842Z,13.55
2022-09-15T12:23:38.875Z,13.59
2022-09-15T12:24:38.903Z,13.5
2022-09-15T12:25:38.936Z,13.5
2022-09-15T12:26:38.970Z,13.55
2022-09-15T12:27:39.004Z,13.55
2022-09-15T12:28:39.036Z,13.58
2022-09-15T12:29:41.840Z,13.57
2022-09-15T12:30:39.105Z,13.59
2022-09-15T12:31:39.215Z,13.7
2022-09-15T12:32:39.161Z,13.66
2022-09-15T12:33:39.189Z,13.65
2022-09-15T12:34:39.223Z,13.74
2022-09-15T12:35:39.249Z,13.79
2022-09-15T12:36:39.300Z,13.83
2022-09-15T12:37:39.315Z,13.84
2022-09-15T12:38:39.344Z,13.84
2022-09-15T12:39:39.379Z,13.82
2022-09-15T12:40:39.520Z,13.66
2022-09-15T12:41:39.437Z,13.68
2022-09-15T12:42:39.474Z,13.59
2022-09-15T12:43:39.506Z,13.56
2022-09-15T12:44:39.533Z,13.6
2022-09-15T12:45:39.571Z,13.62
2022-09-15T12:46:39.649Z,13.63
2022-09-15T12:47:39.636Z,13.57
2022-09-15T12:48:39.673Z,13.62
2022-09-15T12:49:39.701Z,13.62
2022-09-15T12:50:39.733Z,13.69
2022-09-15T12:51:39.766Z,13.65
2022-09-15T12:52:39.808Z,13.52
2022-09-15T12:53:40.891Z,13.59
2022-09-15T12:54:39.871Z,13.68
2022-09-15T12:55:39.907Z,13.62